sensor_id;sensor_type;location;lat;lon;timestamp;P1;durP1;ratioP1;P2;durP2;ratioP2
80231;SDS011;70197;42.124;24.752;2023-08-31T00:02:12;7.93;;;2.90;;
80231;SDS011;70197;42.124;24.752;2023-08-31T00:04:41;10.32;;;3.10;;
80231;SDS011;70197;42.124;24.752;2023-08-31T00:07:06;10.23;;;3.10;;
80231;SDS011;70197;42.124;24.752;2023-08-31T00:09:32;8.52;;;3.05;;
80231;SDS011;70197;42.124;24.752;2023-08-31T00:11:58;5.78;;;3.22;;
80231;SDS011;70197;42.124;24.752;2023-08-31T00:14:26;6.72;;;2.83;;
80231;SDS011;70197;42.124;24.752;2023-08-31T00:16:52;7.75;;;3.15;;
80231;SDS011;70197;42.124;24.752;2023-08-31T00:19:18;6.88;;;3.10;;
80231;SDS011;70197;42.124;24.752;2023-08-31T00:21:44;5.63;;;2.90;;
80231;SDS011;70197;42.124;24.752;2023-08-31T00:24:10;5.90;;;2.95;;
80231;SDS011;70197;42.124;24.752;2023-08-31T00:26:36;4.82;;;2.90;;
80231;SDS011;70197;42.124;24.752;2023-08-31T00:29:06;5.25;;;2.80;;
80231;SDS011;70197;42.124;24.752;2023-08-31T00:31:32;7.53;;;2.72;;
80231;SDS011;70197;42.124;24.752;2023-08-31T00:33:59;11.00;;;3.00;;
80231;SDS011;70197;42.124;24.752;2023-08-31T00:36:32;6.47;;;2.65;;
80231;SDS011;70197;42.124;24.752;2023-08-31T00:38:58;5.30;;;2.70;;
80231;SDS011;70197;42.124;24.752;2023-08-31T00:43:57;9.23;;;2.67;;
80231;SDS011;70197;42.124;24.752;2023-08-31T00:46:23;9.13;;;2.75;;
80231;SDS011;70197;42.124;24.752;2023-08-31T00:48:53;8.98;;;3.42;;
80231;SDS011;70197;42.124;24.752;2023-08-31T00:51:19;6.90;;;3.20;;
80231;SDS011;70197;42.124;24.752;2023-08-31T00:53:44;5.15;;;2.85;;
80231;SDS011;70197;42.124;24.752;2023-08-31T00:56:10;6.32;;;2.92;;
80231;SDS011;70197;42.124;24.752;2023-08-31T00:58:38;6.03;;;2.72;;
80231;SDS011;70197;42.124;24.752;2023-08-31T01:06:18;7.20;;;2.80;;
80231;SDS011;70197;42.124;24.752;2023-08-31T01:14:23;9.23;;;2.95;;
80231;SDS011;70197;42.124;24.752;2023-08-31T01:16:50;8.05;;;3.00;;
80231;SDS011;70197;42.124;24.752;2023-08-31T01:22:05;6.63;;;2.78;;
80231;SDS011;70197;42.124;24.752;2023-08-31T01:24:34;6.20;;;2.75;;
80231;SDS011;70197;42.124;24.752;2023-08-31T01:27:01;7.60;;;2.85;;
80231;SDS011;70197;42.124;24.752;2023-08-31T01:29:29;5.25;;;2.75;;
80231;SDS011;70197;42.124;24.752;2023-08-31T01:31:55;9.68;;;2.95;;
80231;SDS011;70197;42.124;24.752;2023-08-31T01:34:21;7.57;;;2.90;;
80231;SDS011;70197;42.124;24.752;2023-08-31T01:36:47;5.63;;;2.60;;
80231;SDS011;70197;42.124;24.752;2023-08-31T01:39:26;8.07;;;2.95;;
80231;SDS011;70197;42.124;24.752;2023-08-31T01:42:05;10.73;;;3.00;;
80231;SDS011;70197;42.124;24.752;2023-08-31T01:44:32;6.70;;;3.00;;
80231;SDS011;70197;42.124;24.752;2023-08-31T01:47:04;7.10;;;2.85;;
80231;SDS011;70197;42.124;24.752;2023-08-31T01:49:40;7.22;;;2.67;;
80231;SDS011;70197;42.124;24.752;2023-08-31T01:52:06;6.65;;;2.65;;
80231;SDS011;70197;42.124;24.752;2023-08-31T01:54:32;7.57;;;2.83;;
80231;SDS011;70197;42.124;24.752;2023-08-31T01:56:58;5.80;;;2.70;;
80231;SDS011;70197;42.124;24.752;2023-08-31T01:59:24;5.88;;;2.67;;
80231;SDS011;70197;42.124;24.752;2023-08-31T02:01:52;5.55;;;2.58;;
80231;SDS011;70197;42.124;24.752;2023-08-31T02:04:18;5.35;;;2.95;;
80231;SDS011;70197;42.124;24.752;2023-08-31T02:06:43;5.88;;;2.75;;
80231;SDS011;70197;42.124;24.752;2023-08-31T02:09:09;12.38;;;3.20;;
80231;SDS011;70197;42.124;24.752;2023-08-31T02:11:34;8.30;;;2.92;;
80231;SDS011;70197;42.124;24.752;2023-08-31T02:14:03;6.82;;;2.80;;
80231;SDS011;70197;42.124;24.752;2023-08-31T02:16:29;6.65;;;2.80;;
80231;SDS011;70197;42.124;24.752;2023-08-31T02:18:55;11.15;;;2.97;;
80231;SDS011;70197;42.124;24.752;2023-08-31T02:21:21;7.35;;;2.97;;
80231;SDS011;70197;42.124;24.752;2023-08-31T02:23:47;6.80;;;2.80;;
80231;SDS011;70197;42.124;24.752;2023-08-31T02:26:15;7.15;;;2.90;;
80231;SDS011;70197;42.124;24.752;2023-08-31T02:28:41;6.28;;;2.55;;
80231;SDS011;70197;42.124;24.752;2023-08-31T02:31:07;11.98;;;3.38;;
80231;SDS011;70197;42.124;24.752;2023-08-31T02:33:34;7.07;;;3.20;;
80231;SDS011;70197;42.124;24.752;2023-08-31T02:36:00;7.22;;;2.85;;
80231;SDS011;70197;42.124;24.752;2023-08-31T02:38:26;8.27;;;2.80;;
80231;SDS011;70197;42.124;24.752;2023-08-31T02:40:51;11.18;;;3.38;;
80231;SDS011;70197;42.124;24.752;2023-08-31T02:43:17;6.75;;;3.08;;
80231;SDS011;70197;42.124;24.752;2023-08-31T02:45:43;6.95;;;2.90;;
80231;SDS011;70197;42.124;24.752;2023-08-31T02:48:08;5.38;;;2.83;;
80231;SDS011;70197;42.124;24.752;2023-08-31T02:50:34;7.70;;;3.00;;
80231;SDS011;70197;42.124;24.752;2023-08-31T02:53:00;8.30;;;3.45;;
80231;SDS011;70197;42.124;24.752;2023-08-31T02:55:26;10.93;;;2.90;;
80231;SDS011;70197;42.124;24.752;2023-08-31T02:57:54;13.30;;;3.35;;
80231;SDS011;70197;42.124;24.752;2023-08-31T03:00:20;8.48;;;2.97;;
80231;SDS011;70197;42.124;24.752;2023-08-31T03:02:47;7.25;;;3.00;;
80231;SDS011;70197;42.124;24.752;2023-08-31T03:05:13;10.68;;;3.30;;
80231;SDS011;70197;42.124;24.752;2023-08-31T03:07:39;10.27;;;2.67;;
80231;SDS011;70197;42.124;24.752;2023-08-31T03:10:07;10.63;;;2.83;;
80231;SDS011;70197;42.124;24.752;2023-08-31T03:12:37;6.55;;;3.03;;
80231;SDS011;70197;42.124;24.752;2023-08-31T03:15:03;11.95;;;3.22;;
80231;SDS011;70197;42.124;24.752;2023-08-31T03:17:30;6.18;;;3.17;;
80231;SDS011;70197;42.124;24.752;2023-08-31T03:19:56;10.23;;;3.40;;
80231;SDS011;70197;42.124;24.752;2023-08-31T03:22:22;6.55;;;3.17;;
80231;SDS011;70197;42.124;24.752;2023-08-31T03:24:50;7.30;;;3.30;;
80231;SDS011;70197;42.124;24.752;2023-08-31T03:27:16;6.18;;;3.22;;
80231;SDS011;70197;42.124;24.752;2023-08-31T03:29:41;8.88;;;3.25;;
80231;SDS011;70197;42.124;24.752;2023-08-31T03:32:07;12.27;;;3.30;;
80231;SDS011;70197;42.124;24.752;2023-08-31T03:34:33;6.60;;;3.00;;
80231;SDS011;70197;42.124;24.752;2023-08-31T03:36:58;10.23;;;3.20;;
80231;SDS011;70197;42.124;24.752;2023-08-31T03:39:24;7.50;;;2.90;;
80231;SDS011;70197;42.124;24.752;2023-08-31T03:41:51;9.93;;;3.03;;
80231;SDS011;70197;42.124;24.752;2023-08-31T03:44:16;13.73;;;3.65;;
80231;SDS011;70197;42.124;24.752;2023-08-31T03:46:42;11.18;;;3.30;;
80231;SDS011;70197;42.124;24.752;2023-08-31T03:49:08;7.78;;;3.17;;
80231;SDS011;70197;42.124;24.752;2023-08-31T03:51:36;6.47;;;2.80;;
80231;SDS011;70197;42.124;24.752;2023-08-31T03:54:05;8.35;;;3.00;;
80231;SDS011;70197;42.124;24.752;2023-08-31T03:56:30;7.22;;;3.22;;
80231;SDS011;70197;42.124;24.752;2023-08-31T03:58:58;10.60;;;3.47;;
80231;SDS011;70197;42.124;24.752;2023-08-31T04:01:24;9.43;;;3.20;;
80231;SDS011;70197;42.124;24.752;2023-08-31T04:03:49;9.57;;;3.17;;
80231;SDS011;70197;42.124;24.752;2023-08-31T04:06:15;16.30;;;3.17;;
80231;SDS011;70197;42.124;24.752;2023-08-31T04:08:41;13.25;;;3.10;;
80231;SDS011;70197;42.124;24.752;2023-08-31T04:11:06;10.05;;;3.20;;
80231;SDS011;70197;42.124;24.752;2023-08-31T04:13:32;9.10;;;3.35;;
80231;SDS011;70197;42.124;24.752;2023-08-31T04:15:58;13.07;;;3.15;;
80231;SDS011;70197;42.124;24.752;2023-08-31T04:18:24;12.95;;;4.30;;
80231;SDS011;70197;42.124;24.752;2023-08-31T04:20:50;8.48;;;3.30;;
80231;SDS011;70197;42.124;24.752;2023-08-31T04:23:17;8.35;;;3.17;;
80231;SDS011;70197;42.124;24.752;2023-08-31T04:25:44;10.05;;;3.58;;
80231;SDS011;70197;42.124;24.752;2023-08-31T04:28:10;16.85;;;4.22;;
80231;SDS011;70197;42.124;24.752;2023-08-31T04:30:35;9.98;;;4.80;;
80231;SDS011;70197;42.124;24.752;2023-08-31T04:33:01;13.48;;;4.25;;
80231;SDS011;70197;42.124;24.752;2023-08-31T04:35:32;11.68;;;3.42;;
80231;SDS011;70197;42.124;24.752;2023-08-31T04:38:01;15.60;;;3.22;;
80231;SDS011;70197;42.124;24.752;2023-08-31T04:40:29;12.65;;;3.30;;
80231;SDS011;70197;42.124;24.752;2023-08-31T04:42:55;26.20;;;4.13;;
80231;SDS011;70197;42.124;24.752;2023-08-31T04:45:21;13.30;;;3.75;;
80231;SDS011;70197;42.124;24.752;2023-08-31T04:47:50;16.38;;;3.95;;
80231;SDS011;70197;42.124;24.752;2023-08-31T04:50:16;16.88;;;4.03;;
80231;SDS011;70197;42.124;24.752;2023-08-31T04:52:42;11.88;;;3.90;;
80231;SDS011;70197;42.124;24.752;2023-08-31T04:55:08;12.30;;;3.92;;
80231;SDS011;70197;42.124;24.752;2023-08-31T04:57:34;12.82;;;4.03;;
80231;SDS011;70197;42.124;24.752;2023-08-31T05:00:00;13.40;;;3.92;;
80231;SDS011;70197;42.124;24.752;2023-08-31T05:02:25;10.85;;;3.55;;
80231;SDS011;70197;42.124;24.752;2023-08-31T05:04:52;21.02;;;4.25;;
80231;SDS011;70197;42.124;24.752;2023-08-31T05:07:18;24.10;;;4.10;;
80231;SDS011;70197;42.124;24.752;2023-08-31T05:09:43;17.50;;;3.92;;
80231;SDS011;70197;42.124;24.752;2023-08-31T05:12:09;22.33;;;4.22;;
80231;SDS011;70197;42.124;24.752;2023-08-31T05:14:35;17.75;;;4.00;;
80231;SDS011;70197;42.124;24.752;2023-08-31T05:17:05;17.27;;;3.83;;
80231;SDS011;70197;42.124;24.752;2023-08-31T05:19:31;19.20;;;4.60;;
80231;SDS011;70197;42.124;24.752;2023-08-31T05:21:57;12.77;;;3.75;;
80231;SDS011;70197;42.124;24.752;2023-08-31T05:24:22;22.63;;;4.32;;
80231;SDS011;70197;42.124;24.752;2023-08-31T05:26:48;15.65;;;4.25;;
80231;SDS011;70197;42.124;24.752;2023-08-31T05:29:15;18.88;;;4.07;;
80231;SDS011;70197;42.124;24.752;2023-08-31T05:31:41;20.05;;;4.85;;
80231;SDS011;70197;42.124;24.752;2023-08-31T05:34:08;10.45;;;3.55;;
80231;SDS011;70197;42.124;24.752;2023-08-31T05:36:35;14.50;;;4.05;;
80231;SDS011;70197;42.124;24.752;2023-08-31T05:39:00;15.23;;;4.00;;
80231;SDS011;70197;42.124;24.752;2023-08-31T05:41:28;18.85;;;3.88;;
80231;SDS011;70197;42.124;24.752;2023-08-31T05:43:53;15.52;;;3.60;;
80231;SDS011;70197;42.124;24.752;2023-08-31T05:46:19;8.95;;;2.75;;
80231;SDS011;70197;42.124;24.752;2023-08-31T05:48:45;10.02;;;2.65;;
80231;SDS011;70197;42.124;24.752;2023-08-31T05:51:10;8.20;;;2.60;;
80231;SDS011;70197;42.124;24.752;2023-08-31T05:53:36;15.90;;;3.05;;
80231;SDS011;70197;42.124;24.752;2023-08-31T05:56:02;10.57;;;2.80;;
80231;SDS011;70197;42.124;24.752;2023-08-31T05:58:32;16.83;;;3.17;;
80231;SDS011;70197;42.124;24.752;2023-08-31T06:00:59;13.57;;;2.90;;
80231;SDS011;70197;42.124;24.752;2023-08-31T06:03:26;12.75;;;3.08;;
80231;SDS011;70197;42.124;24.752;2023-08-31T06:05:52;9.50;;;2.90;;
80231;SDS011;70197;42.124;24.752;2023-08-31T06:08:18;9.95;;;3.60;;
80231;SDS011;70197;42.124;24.752;2023-08-31T06:10:44;6.90;;;2.80;;
80231;SDS011;70197;42.124;24.752;2023-08-31T06:13:09;11.63;;;3.25;;
80231;SDS011;70197;42.124;24.752;2023-08-31T06:15:35;11.02;;;3.05;;
80231;SDS011;70197;42.124;24.752;2023-08-31T06:18:00;15.07;;;3.65;;
80231;SDS011;70197;42.124;24.752;2023-08-31T06:20:26;10.95;;;3.55;;
80231;SDS011;70197;42.124;24.752;2023-08-31T06:22:52;11.88;;;3.25;;
80231;SDS011;70197;42.124;24.752;2023-08-31T06:25:17;10.35;;;3.50;;
80231;SDS011;70197;42.124;24.752;2023-08-31T06:27:43;6.95;;;2.88;;
80231;SDS011;70197;42.124;24.752;2023-08-31T06:30:10;4.82;;;2.65;;
80231;SDS011;70197;42.124;24.752;2023-08-31T06:32:47;9.43;;;2.90;;
80231;SDS011;70197;42.124;24.752;2023-08-31T06:35:15;8.07;;;2.90;;
80231;SDS011;70197;42.124;24.752;2023-08-31T06:37:41;9.88;;;2.65;;
80231;SDS011;70197;42.124;24.752;2023-08-31T06:40:07;4.93;;;2.75;;
80231;SDS011;70197;42.124;24.752;2023-08-31T06:42:35;7.80;;;2.78;;
80231;SDS011;70197;42.124;24.752;2023-08-31T06:45:02;13.60;;;3.28;;
80231;SDS011;70197;42.124;24.752;2023-08-31T06:47:28;8.68;;;3.10;;
80231;SDS011;70197;42.124;24.752;2023-08-31T06:49:54;7.45;;;2.63;;
80231;SDS011;70197;42.124;24.752;2023-08-31T06:52:19;8.13;;;3.15;;
80231;SDS011;70197;42.124;24.752;2023-08-31T06:54:45;9.38;;;2.90;;
80231;SDS011;70197;42.124;24.752;2023-08-31T06:57:11;9.73;;;3.50;;
80231;SDS011;70197;42.124;24.752;2023-08-31T06:59:36;9.35;;;3.33;;
80231;SDS011;70197;42.124;24.752;2023-08-31T07:02:02;12.63;;;3.70;;
80231;SDS011;70197;42.124;24.752;2023-08-31T07:04:28;8.85;;;3.35;;
80231;SDS011;70197;42.124;24.752;2023-08-31T07:06:53;9.05;;;3.67;;
80231;SDS011;70197;42.124;24.752;2023-08-31T07:09:19;7.38;;;3.20;;
80231;SDS011;70197;42.124;24.752;2023-08-31T07:11:45;8.93;;;3.10;;
80231;SDS011;70197;42.124;24.752;2023-08-31T07:14:10;10.38;;;3.35;;
80231;SDS011;70197;42.124;24.752;2023-08-31T07:16:36;10.70;;;3.08;;
80231;SDS011;70197;42.124;24.752;2023-08-31T07:19:02;8.57;;;3.65;;
80231;SDS011;70197;42.124;24.752;2023-08-31T07:21:30;16.83;;;3.53;;
80231;SDS011;70197;42.124;24.752;2023-08-31T07:23:56;5.82;;;3.22;;
80231;SDS011;70197;42.124;24.752;2023-08-31T07:26:22;15.68;;;3.45;;
80231;SDS011;70197;42.124;24.752;2023-08-31T07:28:48;13.30;;;3.28;;
80231;SDS011;70197;42.124;24.752;2023-08-31T07:31:14;10.02;;;3.53;;
80231;SDS011;70197;42.124;24.752;2023-08-31T07:33:41;13.60;;;3.83;;
80231;SDS011;70197;42.124;24.752;2023-08-31T07:36:08;16.55;;;4.18;;
80231;SDS011;70197;42.124;24.752;2023-08-31T07:38:33;12.50;;;3.15;;
80231;SDS011;70197;42.124;24.752;2023-08-31T07:40:59;13.13;;;3.40;;
80231;SDS011;70197;42.124;24.752;2023-08-31T07:43:25;10.02;;;3.78;;
80231;SDS011;70197;42.124;24.752;2023-08-31T07:45:52;15.70;;;3.50;;
80231;SDS011;70197;42.124;24.752;2023-08-31T07:48:21;12.43;;;3.90;;
80231;SDS011;70197;42.124;24.752;2023-08-31T07:53:17;17.17;;;3.33;;
80231;SDS011;70197;42.124;24.752;2023-08-31T07:55:50;12.02;;;3.22;;
80231;SDS011;70197;42.124;24.752;2023-08-31T07:58:16;10.00;;;3.30;;
80231;SDS011;70197;42.124;24.752;2023-08-31T08:00:45;10.18;;;3.30;;
80231;SDS011;70197;42.124;24.752;2023-08-31T08:03:10;9.80;;;3.50;;
80231;SDS011;70197;42.124;24.752;2023-08-31T08:05:36;12.85;;;3.30;;
80231;SDS011;70197;42.124;24.752;2023-08-31T08:08:02;9.32;;;3.10;;
80231;SDS011;70197;42.124;24.752;2023-08-31T08:10:28;14.38;;;3.13;;
80231;SDS011;70197;42.124;24.752;2023-08-31T08:12:54;9.38;;;3.15;;
80231;SDS011;70197;42.124;24.752;2023-08-31T08:15:21;9.00;;;3.13;;
80231;SDS011;70197;42.124;24.752;2023-08-31T08:17:49;6.10;;;3.05;;
80231;SDS011;70197;42.124;24.752;2023-08-31T08:20:15;25.42;;;4.97;;
80231;SDS011;70197;42.124;24.752;2023-08-31T08:22:41;17.88;;;4.85;;
80231;SDS011;70197;42.124;24.752;2023-08-31T08:25:06;9.70;;;4.10;;
80231;SDS011;70197;42.124;24.752;2023-08-31T08:27:32;17.02;;;4.50;;
80231;SDS011;70197;42.124;24.752;2023-08-31T08:29:58;16.33;;;4.15;;
80231;SDS011;70197;42.124;24.752;2023-08-31T08:32:24;12.82;;;4.05;;
80231;SDS011;70197;42.124;24.752;2023-08-31T08:34:50;10.18;;;4.70;;
80231;SDS011;70197;42.124;24.752;2023-08-31T08:37:16;11.43;;;4.75;;
80231;SDS011;70197;42.124;24.752;2023-08-31T08:39:42;14.52;;;4.65;;
80231;SDS011;70197;42.124;24.752;2023-08-31T08:42:09;7.80;;;4.35;;
80231;SDS011;70197;42.124;24.752;2023-08-31T08:44:36;17.67;;;4.75;;
80231;SDS011;70197;42.124;24.752;2023-08-31T08:47:02;7.40;;;4.38;;
80231;SDS011;70197;42.124;24.752;2023-08-31T08:49:30;11.65;;;4.50;;
80231;SDS011;70197;42.124;24.752;2023-08-31T08:51:57;8.85;;;4.35;;
80231;SDS011;70197;42.124;24.752;2023-08-31T08:54:24;24.75;;;5.72;;
80231;SDS011;70197;42.124;24.752;2023-08-31T08:56:49;26.77;;;5.55;;
80231;SDS011;70197;42.124;24.752;2023-08-31T08:59:15;21.45;;;4.90;;
80231;SDS011;70197;42.124;24.752;2023-08-31T09:01:41;14.63;;;4.40;;
80231;SDS011;70197;42.124;24.752;2023-08-31T09:04:08;12.98;;;4.60;;
80231;SDS011;70197;42.124;24.752;2023-08-31T09:06:34;12.88;;;4.75;;
80231;SDS011;70197;42.124;24.752;2023-08-31T09:09:03;9.50;;;4.68;;
80231;SDS011;70197;42.124;24.752;2023-08-31T09:11:28;10.55;;;4.72;;
80231;SDS011;70197;42.124;24.752;2023-08-31T09:13:54;19.75;;;5.30;;
80231;SDS011;70197;42.124;24.752;2023-08-31T09:16:31;18.27;;;4.88;;
80231;SDS011;70197;42.124;24.752;2023-08-31T09:18:57;15.20;;;4.95;;
80231;SDS011;70197;42.124;24.752;2023-08-31T09:21:38;9.15;;;4.35;;
80231;SDS011;70197;42.124;24.752;2023-08-31T09:24:07;22.05;;;4.75;;
80231;SDS011;70197;42.124;24.752;2023-08-31T09:26:37;30.65;;;5.03;;
80231;SDS011;70197;42.124;24.752;2023-08-31T09:29:06;17.38;;;4.40;;
80231;SDS011;70197;42.124;24.752;2023-08-31T09:31:33;16.23;;;4.30;;
80231;SDS011;70197;42.124;24.752;2023-08-31T09:33:58;12.88;;;4.40;;
80231;SDS011;70197;42.124;24.752;2023-08-31T09:36:24;17.13;;;4.40;;
80231;SDS011;70197;42.124;24.752;2023-08-31T09:38:51;8.40;;;4.15;;
80231;SDS011;70197;42.124;24.752;2023-08-31T09:41:16;5.70;;;3.65;;
80231;SDS011;70197;42.124;24.752;2023-08-31T09:43:42;21.55;;;4.45;;
80231;SDS011;70197;42.124;24.752;2023-08-31T09:46:08;74.78;;;6.65;;
80231;SDS011;70197;42.124;24.752;2023-08-31T09:48:35;78.18;;;6.57;;
80231;SDS011;70197;42.124;24.752;2023-08-31T09:51:04;19.25;;;4.95;;
80231;SDS011;70197;42.124;24.752;2023-08-31T09:53:30;16.55;;;4.78;;
80231;SDS011;70197;42.124;24.752;2023-08-31T09:55:57;23.98;;;4.40;;
80231;SDS011;70197;42.124;24.752;2023-08-31T09:58:23;11.35;;;4.40;;
80231;SDS011;70197;42.124;24.752;2023-08-31T10:00:50;22.75;;;4.35;;
80231;SDS011;70197;42.124;24.752;2023-08-31T10:03:16;19.58;;;4.55;;
80231;SDS011;70197;42.124;24.752;2023-08-31T10:05:43;19.58;;;4.72;;
80231;SDS011;70197;42.124;24.752;2023-08-31T10:08:11;14.40;;;4.55;;
80231;SDS011;70197;42.124;24.752;2023-08-31T10:10:36;12.93;;;4.47;;
80231;SDS011;70197;42.124;24.752;2023-08-31T10:13:04;8.27;;;3.95;;
80231;SDS011;70197;42.124;24.752;2023-08-31T10:15:33;7.32;;;4.20;;
80231;SDS011;70197;42.124;24.752;2023-08-31T10:18:03;8.85;;;4.28;;
80231;SDS011;70197;42.124;24.752;2023-08-31T10:20:30;10.32;;;4.35;;
80231;SDS011;70197;42.124;24.752;2023-08-31T10:23:03;18.33;;;4.55;;
80231;SDS011;70197;42.124;24.752;2023-08-31T10:26:12;10.00;;;4.40;;
80231;SDS011;70197;42.124;24.752;2023-08-31T10:31:03;14.15;;;4.80;;
80231;SDS011;70197;42.124;24.752;2023-08-31T10:36:13;12.07;;;4.30;;
80231;SDS011;70197;42.124;24.752;2023-08-31T10:38:41;16.75;;;5.03;;
80231;SDS011;70197;42.124;24.752;2023-08-31T10:46:24;8.70;;;5.07;;
80231;SDS011;70197;42.124;24.752;2023-08-31T10:51:35;7.95;;;5.00;;
80231;SDS011;70197;42.124;24.752;2023-08-31T10:56:31;13.95;;;5.05;;
80231;SDS011;70197;42.124;24.752;2023-08-31T10:59:00;11.73;;;4.80;;
80231;SDS011;70197;42.124;24.752;2023-08-31T11:04:28;8.70;;;4.32;;
80231;SDS011;70197;42.124;24.752;2023-08-31T11:09:42;11.77;;;4.53;;
80231;SDS011;70197;42.124;24.752;2023-08-31T11:12:09;18.63;;;5.43;;
80231;SDS011;70197;42.124;24.752;2023-08-31T11:14:35;8.95;;;4.38;;
80231;SDS011;70197;42.124;24.752;2023-08-31T11:17:01;10.73;;;4.40;;
80231;SDS011;70197;42.124;24.752;2023-08-31T11:19:29;17.80;;;4.70;;
80231;SDS011;70197;42.124;24.752;2023-08-31T11:21:55;10.93;;;4.25;;
80231;SDS011;70197;42.124;24.752;2023-08-31T11:24:21;13.85;;;5.05;;
80231;SDS011;70197;42.124;24.752;2023-08-31T11:26:49;12.80;;;4.32;;
80231;SDS011;70197;42.124;24.752;2023-08-31T11:29:15;14.77;;;4.68;;
80231;SDS011;70197;42.124;24.752;2023-08-31T11:31:41;27.08;;;4.53;;
80231;SDS011;70197;42.124;24.752;2023-08-31T11:34:13;11.50;;;4.63;;
80231;SDS011;70197;42.124;24.752;2023-08-31T11:36:42;9.13;;;4.63;;
80231;SDS011;70197;42.124;24.752;2023-08-31T11:39:09;16.88;;;4.80;;
80231;SDS011;70197;42.124;24.752;2023-08-31T11:41:36;6.30;;;3.78;;
80231;SDS011;70197;42.124;24.752;2023-08-31T11:44:06;10.18;;;4.25;;
80231;SDS011;70197;42.124;24.752;2023-08-31T11:46:34;9.70;;;4.50;;
80231;SDS011;70197;42.124;24.752;2023-08-31T11:49:00;17.67;;;4.97;;
80231;SDS011;70197;42.124;24.752;2023-08-31T11:51:29;16.83;;;4.78;;
80231;SDS011;70197;42.124;24.752;2023-08-31T11:53:57;13.10;;;3.95;;
80231;SDS011;70197;42.124;24.752;2023-08-31T11:56:24;17.13;;;4.35;;
80231;SDS011;70197;42.124;24.752;2023-08-31T11:58:50;35.03;;;4.53;;
80231;SDS011;70197;42.124;24.752;2023-08-31T12:01:20;36.25;;;4.78;;
80231;SDS011;70197;42.124;24.752;2023-08-31T12:03:46;17.63;;;4.32;;
80231;SDS011;70197;42.124;24.752;2023-08-31T12:06:16;18.75;;;3.80;;
80231;SDS011;70197;42.124;24.752;2023-08-31T12:08:43;11.10;;;3.72;;
80231;SDS011;70197;42.124;24.752;2023-08-31T12:11:09;9.23;;;3.85;;
80231;SDS011;70197;42.124;24.752;2023-08-31T12:13:34;13.85;;;3.95;;
80231;SDS011;70197;42.124;24.752;2023-08-31T12:16:00;7.15;;;3.90;;
80231;SDS011;70197;42.124;24.752;2023-08-31T12:18:30;8.95;;;3.78;;
80231;SDS011;70197;42.124;24.752;2023-08-31T12:20:58;10.77;;;3.90;;
80231;SDS011;70197;42.124;24.752;2023-08-31T12:23:25;9.23;;;3.83;;
80231;SDS011;70197;42.124;24.752;2023-08-31T12:25:52;21.42;;;4.10;;
80231;SDS011;70197;42.124;24.752;2023-08-31T12:28:19;14.77;;;4.20;;
80231;SDS011;70197;42.124;24.752;2023-08-31T12:30:49;8.63;;;3.80;;
80231;SDS011;70197;42.124;24.752;2023-08-31T12:33:18;8.82;;;4.03;;
80231;SDS011;70197;42.124;24.752;2023-08-31T12:35:45;16.20;;;3.92;;
80231;SDS011;70197;42.124;24.752;2023-08-31T12:38:12;10.02;;;4.05;;
80231;SDS011;70197;42.124;24.752;2023-08-31T12:40:38;16.15;;;4.43;;
80231;SDS011;70197;42.124;24.752;2023-08-31T12:43:04;10.80;;;4.30;;
80231;SDS011;70197;42.124;24.752;2023-08-31T12:45:30;12.65;;;3.80;;
80231;SDS011;70197;42.124;24.752;2023-08-31T12:47:56;19.48;;;4.55;;
80231;SDS011;70197;42.124;24.752;2023-08-31T12:50:21;19.65;;;4.25;;
80231;SDS011;70197;42.124;24.752;2023-08-31T12:52:48;14.02;;;3.75;;
80231;SDS011;70197;42.124;24.752;2023-08-31T12:55:13;8.85;;;3.80;;
80231;SDS011;70197;42.124;24.752;2023-08-31T12:57:40;15.77;;;4.00;;
80231;SDS011;70197;42.124;24.752;2023-08-31T13:00:06;17.95;;;3.80;;
80231;SDS011;70197;42.124;24.752;2023-08-31T13:02:40;21.30;;;4.15;;
80231;SDS011;70197;42.124;24.752;2023-08-31T13:05:08;14.70;;;4.05;;
80231;SDS011;70197;42.124;24.752;2023-08-31T13:07:35;8.40;;;3.65;;
80231;SDS011;70197;42.124;24.752;2023-08-31T13:10:02;14.25;;;3.65;;
80231;SDS011;70197;42.124;24.752;2023-08-31T13:12:29;8.15;;;3.60;;
80231;SDS011;70197;42.124;24.752;2023-08-31T13:14:56;18.17;;;3.72;;
80231;SDS011;70197;42.124;24.752;2023-08-31T13:17:22;11.45;;;3.65;;
80231;SDS011;70197;42.124;24.752;2023-08-31T13:19:51;13.35;;;4.22;;
80231;SDS011;70197;42.124;24.752;2023-08-31T13:22:21;25.90;;;4.63;;
80231;SDS011;70197;42.124;24.752;2023-08-31T13:24:47;16.38;;;3.80;;
80231;SDS011;70197;42.124;24.752;2023-08-31T13:27:12;10.80;;;3.97;;
80231;SDS011;70197;42.124;24.752;2023-08-31T13:29:38;7.20;;;3.80;;
80231;SDS011;70197;42.124;24.752;2023-08-31T13:32:05;9.90;;;3.40;;
80231;SDS011;70197;42.124;24.752;2023-08-31T13:34:32;15.82;;;3.90;;
80231;SDS011;70197;42.124;24.752;2023-08-31T13:36:58;31.10;;;4.82;;
80231;SDS011;70197;42.124;24.752;2023-08-31T13:39:23;18.13;;;3.83;;
80231;SDS011;70197;42.124;24.752;2023-08-31T13:41:50;12.45;;;3.97;;
80231;SDS011;70197;42.124;24.752;2023-08-31T13:44:17;18.73;;;3.83;;
80231;SDS011;70197;42.124;24.752;2023-08-31T13:46:43;14.65;;;4.32;;
80231;SDS011;70197;42.124;24.752;2023-08-31T13:49:09;11.57;;;3.78;;
80231;SDS011;70197;42.124;24.752;2023-08-31T13:51:34;17.00;;;3.60;;
80231;SDS011;70197;42.124;24.752;2023-08-31T13:54:01;9.13;;;3.92;;
80231;SDS011;70197;42.124;24.752;2023-08-31T13:56:28;22.67;;;3.90;;
80231;SDS011;70197;42.124;24.752;2023-08-31T13:58:54;14.32;;;3.58;;
80231;SDS011;70197;42.124;24.752;2023-08-31T14:01:20;9.20;;;3.53;;
80231;SDS011;70197;42.124;24.752;2023-08-31T14:03:45;12.25;;;3.50;;
80231;SDS011;70197;42.124;24.752;2023-08-31T14:06:11;12.20;;;3.78;;
80231;SDS011;70197;42.124;24.752;2023-08-31T14:08:37;7.93;;;4.00;;
80231;SDS011;70197;42.124;24.752;2023-08-31T14:11:02;18.13;;;4.05;;
80231;SDS011;70197;42.124;24.752;2023-08-31T14:13:28;18.48;;;4.03;;
80231;SDS011;70197;42.124;24.752;2023-08-31T14:15:53;8.48;;;4.07;;
80231;SDS011;70197;42.124;24.752;2023-08-31T14:18:19;22.58;;;4.65;;
80231;SDS011;70197;42.124;24.752;2023-08-31T14:20:46;14.25;;;3.50;;
80231;SDS011;70197;42.124;24.752;2023-08-31T14:23:11;7.93;;;3.22;;
80231;SDS011;70197;42.124;24.752;2023-08-31T14:25:37;11.95;;;3.90;;
80231;SDS011;70197;42.124;24.752;2023-08-31T14:28:04;7.28;;;3.30;;
80231;SDS011;70197;42.124;24.752;2023-08-31T14:30:38;6.55;;;3.58;;
80231;SDS011;70197;42.124;24.752;2023-08-31T14:33:04;9.40;;;3.20;;
80231;SDS011;70197;42.124;24.752;2023-08-31T14:35:30;13.55;;;4.13;;
80231;SDS011;70197;42.124;24.752;2023-08-31T14:37:56;11.85;;;3.45;;
80231;SDS011;70197;42.124;24.752;2023-08-31T14:40:23;11.18;;;3.53;;
80231;SDS011;70197;42.124;24.752;2023-08-31T14:42:48;16.27;;;4.10;;
80231;SDS011;70197;42.124;24.752;2023-08-31T14:45:14;8.82;;;3.58;;
80231;SDS011;70197;42.124;24.752;2023-08-31T14:47:40;9.55;;;3.95;;
80231;SDS011;70197;42.124;24.752;2023-08-31T14:50:06;11.60;;;4.00;;
80231;SDS011;70197;42.124;24.752;2023-08-31T14:52:33;14.82;;;4.20;;
80231;SDS011;70197;42.124;24.752;2023-08-31T14:55:00;17.85;;;4.35;;
80231;SDS011;70197;42.124;24.752;2023-08-31T14:57:28;17.15;;;4.53;;
80231;SDS011;70197;42.124;24.752;2023-08-31T15:00:00;14.35;;;3.67;;
80231;SDS011;70197;42.124;24.752;2023-08-31T15:02:30;8.60;;;3.47;;
80231;SDS011;70197;42.124;24.752;2023-08-31T15:04:56;9.25;;;3.50;;